Time;durP1;ratioP1;P1;durP2;ratioP2;P2;SDS_P1;SDS_P2;PMS_P1;PMS_P2;Temp;Humidity;BMP_temperature;BMP_pressure;BME280_temperature;BME280_humidity;BME280_pressure;Samples;Min_cycle;Max_cycle;Signal;HPM_P1;HPM_P2
2022/03/01 00:01:34;;;;;;;5.28;3.67;;;14.20;35.30;;;;;;5127974;27;46806;-15
2022/03/01 00:04:00;;;;;;;4.00;3.50;;;14.20;35.30;;;;;;5127989;27;46909;-15
2022/03/01 00:06:27;;;;;;;5.30;3.75;;;14.20;35.30;;;;;;5127876;27;48046;-15
2022/03/01 00:08:54;;;;;;;4.15;3.75;;;14.20;35.30;;;;;;5127563;27;47055;-15
2022/03/01 00:11:22;;;;;;;3.40;3.10;;;14.20;35.30;;;;;;5127614;27;46816;-15
2022/03/01 00:13:49;;;;;;;4.45;3.33;;;14.20;35.30;;;;;;5128025;27;47083;-15
2022/03/01 00:16:16;;;;;;;4.32;3.60;;;14.20;35.30;;;;;;5127440;27;48116;-16
2022/03/01 00:18:43;;;;;;;5.40;4.00;;;14.20;35.30;;;;;;5126296;27;47428;-15
2022/03/01 00:21:09;;;;;;;4.63;3.70;;;14.10;35.10;;;;;;5127805;27;46888;-16
2022/03/01 00:23:36;;;;;;;5.50;3.50;;;14.10;35.20;;;;;;5127497;27;47109;-15
2022/03/01 00:26:03;;;;;;;5.20;3.42;;;14.10;35.30;;;;;;5127593;27;48202;-16
2022/03/01 00:28:31;;;;;;;5.95;3.80;;;14.10;35.20;;;;;;5127616;27;47248;-16
2022/03/01 00:30:58;;;;;;;3.92;3.58;;;14.10;35.20;;;;;;5127102;27;46797;-15
2022/03/01 00:33:24;;;;;;;4.13;2.88;;;14.10;35.90;;;;;;5127469;27;46872;-16
2022/03/01 00:35:51;;;;;;;4.38;3.60;;;14.10;35.30;;;;;;5127111;27;48217;-15
2022/03/01 00:38:18;;;;;;;4.82;3.80;;;14.10;35.20;;;;;;5127438;27;47240;-15
2022/03/01 00:40:44;;;;;;;4.05;3.30;;;14.10;35.00;;;;;;5127405;27;47058;-15
2022/03/01 00:43:11;;;;;;;5.75;3.78;;;14.10;35.00;;;;;;5127340;27;46920;-16
2022/03/01 00:45:39;;;;;;;4.13;3.55;;;14.00;35.00;;;;;;5127204;27;49059;-15
2022/03/01 00:48:06;;;;;;;5.28;3.65;;;14.00;35.10;;;;;;5127247;27;46891;-15
2022/03/01 00:50:32;;;;;;;4.15;3.45;;;14.00;35.20;;;;;;5127197;27;47049;-15
2022/03/01 00:52:59;;;;;;;4.97;3.90;;;14.10;35.10;;;;;;5127368;27;47245;-16
2022/03/01 00:55:26;;;;;;;4.43;3.75;;;14.20;34.80;;;;;;5126661;27;48922;-15
2022/03/01 00:57:53;;;;;;;4.03;3.58;;;14.30;34.60;;;;;;5126912;27;46907;-14
2022/03/01 01:00:19;;;;;;;4.60;3.63;;;14.40;34.40;;;;;;5127075;27;46772;-15
2022/03/01 01:02:48;;;;;;;4.15;3.25;;;14.50;34.20;;;;;;5127290;27;46826;-15
2022/03/01 01:05:15;;;;;;;4.00;3.60;;;14.50;34.10;;;;;;5126546;27;49102;-15
2022/03/01 01:07:41;;;;;;;4.53;3.63;;;14.60;34.10;;;;;;5126978;27;47162;-16
2022/03/01 01:10:09;;;;;;;3.80;3.05;;;14.60;33.90;;;;;;5126503;27;46820;-15
2022/03/01 01:12:36;;;;;;;4.45;3.83;;;14.60;33.90;;;;;;5127129;27;46963;-15
2022/03/01 01:15:03;;;;;;;5.50;3.83;;;14.70;33.90;;;;;;5126502;27;48902;-14
2022/03/01 01:17:29;;;;;;;4.78;3.45;;;14.70;33.90;;;;;;5126531;27;46854;-16
2022/03/01 01:19:57;;;;;;;3.97;3.38;;;14.70;33.90;;;;;;5126801;27;46903;-15
2022/03/01 01:22:42;;;;;;;3.40;3.00;;;14.70;33.90;;;;;;5126826;27;46943;-20
2022/03/01 01:25:10;;;;;;;4.50;2.90;;;14.70;33.90;;;;;;5126604;27;49075;-20
2022/03/01 01:27:37;;;;;;;5.05;3.45;;;14.70;33.90;;;;;;5126728;27;46952;-21
2022/03/01 01:30:04;;;;;;;3.53;3.22;;;14.70;33.90;;;;;;5126194;27;47069;-20
2022/03/01 01:32:31;;;;;;;4.97;3.40;;;14.60;33.90;;;;;;5126542;27;47016;-20
2022/03/01 01:34:59;;;;;;;3.50;2.92;;;14.60;33.90;;;;;;5126390;27;49150;-20
2022/03/01 01:37:26;;;;;;;4.18;3.25;;;14.70;34.00;;;;;;5126604;27;46910;-19
2022/03/01 01:39:52;;;;;;;3.50;3.20;;;14.60;33.90;;;;;;5126230;27;47203;-20
2022/03/01 01:42:19;;;;;;;3.88;3.15;;;14.60;33.90;;;;;;5126871;27;46888;-20
2022/03/01 01:44:46;;;;;;;4.45;3.10;;;14.60;33.90;;;;;;5126464;27;48048;-20
2022/03/01 01:47:12;;;;;;;3.40;3.10;;;14.60;33.90;;;;;;5126446;27;47181;-20
2022/03/01 01:49:39;;;;;;;3.70;3.25;;;14.60;34.00;;;;;;5126478;27;47036;-20
2022/03/01 01:52:08;;;;;;;3.78;3.03;;;14.60;33.90;;;;;;5126209;27;46907;-20
2022/03/01 01:54:35;;;;;;;3.65;3.00;;;14.60;33.90;;;;;;5126209;27;46808;-20
2022/03/01 01:57:01;;;;;;;3.58;2.88;;;14.60;33.90;;;;;;5126323;27;47009;-21
2022/03/01 01:59:28;;;;;;;3.25;2.90;;;14.50;33.90;;;;;;5126036;27;47039;-19
2022/03/01 02:01:55;;;;;;;3.63;3.00;;;14.50;33.90;;;;;;5126145;27;47150;-19
2022/03/01 02:04:21;;;;;;;3.10;2.75;;;14.50;34.00;;;;;;5125995;27;48182;-20
2022/03/01 02:06:51;;;;;;;3.70;3.13;;;14.50;34.00;;;;;;5126170;27;47426;-20
2022/03/01 02:09:19;;;;;;;3.47;3.13;;;14.50;34.00;;;;;;5125604;27;46902;-20
2022/03/01 02:11:46;;;;;;;3.67;2.83;;;14.50;34.00;;;;;;5126265;27;46927;-20
2022/03/01 02:14:13;;;;;;;3.78;2.72;;;14.40;34.00;;;;;;5125936;27;47833;-20
2022/03/01 02:16:40;;;;;;;3.50;3.20;;;14.40;34.00;;;;;;5125918;27;47437;-20
2022/03/01 02:19:07;;;;;;;3.00;2.63;;;14.40;34.00;;;;;;5125909;27;46993;-20
2022/03/01 02:21:35;;;;;;;2.78;2.55;;;14.40;34.00;;;;;;5126022;27;46882;-20
2022/03/01 02:24:01;;;;;;;3.35;2.80;;;14.40;34.00;;;;;;5125790;27;48998;-20
2022/03/01 02:26:28;;;;;;;3.53;2.60;;;14.40;34.00;;;;;;5126147;27;47358;-20
2022/03/01 02:28:55;;;;;;;4.03;2.75;;;14.40;34.10;;;;;;5125848;27;46907;-20
2022/03/01 02:31:21;;;;;;;3.67;2.90;;;14.30;34.00;;;;;;5125874;27;46903;-20
2022/03/01 02:33:48;;;;;;;3.22;2.90;;;14.30;34.10;;;;;;5125722;27;49316;-20
2022/03/01 02:36:15;;;;;;;2.80;2.50;;;14.30;34.10;;;;;;5125605;27;47429;-20
2022/03/01 02:38:43;;;;;;;3.35;2.90;;;14.30;34.10;;;;;;5126117;27;46793;-20
2022/03/01 02:41:09;;;;;;;2.72;2.53;;;14.20;34.10;;;;;;5125770;27;46938;-20
2022/03/01 02:43:36;;;;;;;3.03;2.70;;;14.20;34.00;;;;;;5128371;27;48247;-15
2022/03/01 02:46:03;;;;;;;3.70;2.72;;;14.20;34.00;;;;;;5129044;27;46877;-16
2022/03/01 02:48:30;;;;;;;3.55;2.78;;;14.20;34.00;;;;;;5129059;27;46818;-14
2022/03/01 02:50:56;;;;;;;4.13;3.15;;;14.20;34.10;;;;;;5129090;27;46785;-15
2022/03/01 02:53:23;;;;;;;4.93;2.90;;;14.20;34.00;;;;;;5129041;27;48350;-16
2022/03/01 02:55:51;;;;;;;4.32;3.03;;;14.20;34.10;;;;;;5128853;27;47015;-15
2022/03/01 02:58:18;;;;;;;2.80;2.55;;;14.20;34.10;;;;;;5129246;27;46898;-15
2022/03/01 03:00:45;;;;;;;2.95;2.35;;;14.20;34.10;;;;;;5129147;27;46785;-15
2022/03/01 03:03:12;;;;;;;3.15;2.75;;;14.10;34.10;;;;;;5128886;27;48200;-15
2022/03/01 03:05:38;;;;;;;3.35;2.90;;;14.10;34.10;;;;;;5128586;27;46888;-15
2022/03/01 03:08:05;;;;;;;2.97;2.67;;;14.10;34.10;;;;;;5128749;27;46822;-15
2022/03/01 03:10:33;;;;;;;3.45;2.78;;;14.10;34.10;;;;;;5128438;27;46925;-15
2022/03/01 03:13:01;;;;;;;2.95;2.65;;;14.10;34.20;;;;;;5128449;27;49138;-16
2022/03/01 03:15:28;;;;;;;3.63;2.75;;;14.10;34.20;;;;;;5128483;27;47624;-15
2022/03/01 03:17:54;;;;;;;3.25;2.95;;;14.10;34.80;;;;;;5128565;27;46931;-16
2022/03/01 03:20:21;;;;;;;3.70;2.80;;;14.00;34.20;;;;;;5128443;27;47280;-15
2022/03/01 03:22:48;;;;;;;3.17;2.67;;;14.00;34.20;;;;;;5128520;27;47895;-16
2022/03/01 03:25:15;;;;;;;3.47;2.78;;;14.00;34.20;;;;;;5128191;27;46786;-15
2022/03/01 03:27:41;;;;;;;3.75;3.00;;;14.00;34.30;;;;;;5128573;27;46988;-16
2022/03/01 03:30:11;;;;;;;3.63;2.70;;;14.00;34.30;;;;;;5128373;27;46841;-15
2022/03/01 03:32:37;;;;;;;3.53;2.53;;;14.00;34.20;;;;;;5128331;27;48139;-14
2022/03/01 03:35:05;;;;;;;2.97;2.50;;;14.00;34.20;;;;;;5128332;27;47089;-15
2022/03/01 03:37:32;;;;;;;3.03;2.72;;;13.90;34.30;;;;;;5128621;27;46798;-15
2022/03/01 03:39:59;;;;;;;3.70;3.30;;;13.90;34.20;;;;;;5128435;27;46899;-15
2022/03/01 03:42:26;;;;;;;3.38;2.63;;;13.90;34.30;;;;;;5128284;27;49065;-16
2022/03/01 03:44:52;;;;;;;3.28;2.63;;;13.90;34.30;;;;;;5128011;27;46933;-15
2022/03/01 03:47:20;;;;;;;3.20;2.80;;;13.90;34.30;;;;;;5128021;27;46793;-16
2022/03/01 03:49:47;;;;;;;2.60;2.40;;;13.80;34.30;;;;;;5127928;27;46825;-15
2022/03/01 03:52:14;;;;;;;3.10;2.80;;;13.90;34.30;;;;;;5128063;27;48257;-20
2022/03/01 03:54:40;;;;;;;3.20;2.88;;;13.90;34.30;;;;;;5127390;27;46976;-20
2022/03/01 03:57:08;;;;;;;6.00;3.17;;;14.00;34.20;;;;;;5128091;27;46886;-21
2022/03/01 03:59:35;;;;;;;2.80;2.55;;;14.10;34.00;;;;;;5128024;27;46984;-21
2022/03/01 04:02:02;;;;;;;2.83;2.60;;;14.20;33.90;;;;;;5127862;27;48775;-20
2022/03/01 04:04:30;;;;;;;5.18;3.00;;;14.20;33.70;;;;;;5127614;27;47023;-15
2022/03/01 04:06:57;;;;;;;2.90;2.60;;;14.30;33.50;;;;;;5127989;27;46892;-15
2022/03/01 04:09:24;;;;;;;2.92;2.63;;;14.30;33.40;;;;;;5127478;27;46913;-15
2022/03/01 04:11:50;;;;;;;2.50;2.30;;;14.40;33.40;;;;;;5127799;27;47921;-16
2022/03/01 04:14:17;;;;;;;2.92;2.55;;;14.40;33.30;;;;;;5127598;27;47569;-15
2022/03/01 04:16:44;;;;;;;3.60;2.50;;;14.40;33.20;;;;;;5127873;27;46887;-16
2022/03/01 04:19:11;;;;;;;2.80;2.50;;;14.40;33.20;;;;;;5127794;27;47121;-20
2022/03/01 04:21:39;;;;;;;3.17;2.50;;;14.40;33.20;;;;;;5127452;27;48724;-20
2022/03/01 04:24:06;;;;;;;3.40;2.53;;;14.40;33.20;;;;;;5127163;27;46992;-20
2022/03/01 04:26:32;;;;;;;4.75;3.45;;;14.40;33.10;;;;;;5127797;27;46817;-20
2022/03/01 04:28:59;;;;;;;4.05;3.10;;;14.40;33.10;;;;;;5127446;27;46894;-20
2022/03/01 04:31:26;;;;;;;5.03;3.15;;;14.40;33.70;;;;;;5127206;27;47811;-20
2022/03/01 04:33:54;;;;;;;3.47;2.85;;;14.40;33.10;;;;;;5127366;27;47308;-20
2022/03/01 04:36:21;;;;;;;4.88;3.08;;;14.40;33.10;;;;;;5127421;27;47051;-20
2022/03/01 04:38:49;;;;;;;3.72;3.05;;;14.30;33.10;;;;;;5127601;27;46922;-20
2022/03/01 04:41:15;;;;;;;4.00;2.88;;;14.30;33.10;;;;;;5127079;27;48753;-20
2022/03/01 04:43:42;;;;;;;4.25;3.40;;;14.30;33.20;;;;;;5127268;27;46914;-20
2022/03/01 04:46:09;;;;;;;3.47;2.95;;;14.30;33.20;;;;;;5127081;27;46817;-20
2022/03/01 04:48:36;;;;;;;4.22;3.40;;;14.30;33.20;;;;;;5127136;27;46995;-20
2022/03/01 04:51:04;;;;;;;3.05;2.70;;;14.30;33.20;;;;;;5127216;27;48816;-15
2022/03/01 04:53:31;;;;;;;3.20;2.42;;;14.30;33.30;;;;;;5126873;27;46857;-20
2022/03/01 04:55:59;;;;;;;3.08;2.78;;;14.20;33.30;;;;;;5127194;27;47039;-20
2022/03/01 04:58:25;;;;;;;3.88;2.85;;;14.20;33.40;;;;;;5127323;27;46963;-20
2022/03/01 05:00:54;;;;;;;3.65;2.83;;;14.20;33.40;;;;;;5126880;27;49244;-20
2022/03/01 05:03:21;;;;;;;4.53;3.05;;;14.20;33.40;;;;;;5126820;27;46982;-20
2022/03/01 05:05:48;;;;;;;4.22;3.20;;;14.20;33.50;;;;;;5126041;27;46947;-20
2022/03/01 05:08:15;;;;;;;3.75;2.72;;;14.20;33.50;;;;;;5127246;27;46837;-21
2022/03/01 05:10:42;;;;;;;2.80;2.40;;;14.10;33.50;;;;;;5126242;27;47063;-20
2022/03/01 05:13:10;;;;;;;3.85;2.65;;;14.10;33.50;;;;;;5126508;27;46860;-21
2022/03/01 05:15:36;;;;;;;4.60;2.80;;;14.10;33.50;;;;;;5126729;27;47035;-15
2022/03/01 05:18:03;;;;;;;3.10;2.80;;;14.00;33.60;;;;;;5127100;27;46893;-16
2022/03/01 05:20:30;;;;;;;3.55;2.60;;;14.00;33.60;;;;;;5126383;27;48107;-15
2022/03/01 05:22:56;;;;;;;3.45;2.67;;;14.00;33.60;;;;;;5126463;27;46767;-16
2022/03/01 05:25:23;;;;;;;3.10;2.80;;;14.00;33.60;;;;;;5126315;27;47211;-15
2022/03/01 05:27:51;;;;;;;2.90;2.58;;;14.00;33.60;;;;;;5127060;27;46894;-15
2022/03/01 05:30:19;;;;;;;3.33;2.58;;;14.00;33.70;;;;;;5126489;27;47920;-16
2022/03/01 05:32:47;;;;;;;3.40;2.80;;;13.90;33.70;;;;;;5126515;27;47247;-16
2022/03/01 05:35:14;;;;;;;2.95;2.70;;;13.90;33.70;;;;;;5126830;27;46730;-16
2022/03/01 05:37:41;;;;;;;3.47;2.88;;;13.90;33.80;;;;;;5126800;27;46920;-16
2022/03/01 05:40:09;;;;;;;3.13;2.67;;;13.90;33.80;;;;;;5125911;27;48468;-15
2022/03/01 05:42:36;;;;;;;3.47;2.42;;;13.90;33.80;;;;;;5126667;27;46973;-15
2022/03/01 05:45:02;;;;;;;3.40;2.70;;;13.80;33.70;;;;;;5126500;27;46888;-15
2022/03/01 05:47:31;;;;;;;3.05;2.53;;;13.80;33.70;;;;;;5126692;27;46866;-15
2022/03/01 05:49:57;;;;;;;3.45;2.92;;;13.80;33.70;;;;;;5126162;27;46971;-15
2022/03/01 05:52:24;;;;;;;3.10;2.70;;;13.80;33.70;;;;;;5126278;27;47413;-15
2022/03/01 05:54:51;;;;;;;3.50;2.97;;;13.80;33.80;;;;;;5126210;27;46949;-15
2022/03/01 05:57:17;;;;;;;3.78;2.70;;;13.70;33.80;;;;;;5126355;27;46888;-15
2022/03/01 05:59:44;;;;;;;2.80;2.50;;;13.70;33.80;;;;;;5126165;27;49201;-15
2022/03/01 06:02:11;;;;;;;3.50;2.83;;;13.70;33.90;;;;;;5126233;27;46986;-16
2022/03/01 06:04:39;;;;;;;4.10;2.63;;;13.70;33.90;;;;;;5125868;27;46825;-15
2022/03/01 06:07:05;;;;;;;3.30;2.80;;;13.70;33.90;;;;;;5126552;27;47286;-15
2022/03/01 06:09:32;;;;;;;3.10;2.77;;;13.60;33.90;;;;;;5125702;27;48124;-15
2022/03/01 06:11:59;;;;;;;3.90;2.93;;;13.60;34.00;;;;;;5126222;27;46738;-20
2022/03/01 06:14:25;;;;;;;4.10;2.72;;;13.60;34.00;;;;;;5125821;27;46832;-15
2022/03/01 06:16:52;;;;;;;2.72;2.53;;;13.60;34.00;;;;;;5128334;27;47285;-15
2022/03/01 06:19:19;;;;;;;3.87;2.80;;;13.60;34.10;;;;;;5129650;27;47039;-15
2022/03/01 06:21:47;;;;;;;3.20;2.80;;;13.60;34.10;;;;;;5129409;27;46884;-16
2022/03/01 06:24:13;;;;;;;3.80;2.80;;;13.60;34.10;;;;;;5129391;27;46973;-16
2022/03/01 06:26:40;;;;;;;3.70;2.80;;;13.60;34.10;;;;;;5129823;27;46932;-15
2022/03/01 06:29:07;;;;;;;3.20;2.90;;;13.60;34.00;;;;;;5128901;27;48097;-15
2022/03/01 06:31:33;;;;;;;3.53;3.00;;;13.70;33.90;;;;;;5129329;27;47488;-15
2022/03/01 06:34:00;;;;;;;4.05;3.00;;;13.80;33.70;;;;;;5128969;27;46996;-15
2022/03/01 06:36:27;;;;;;;2.85;2.53;;;13.90;33.60;;;;;;5129635;27;46879;-19
2022/03/01 06:38:55;;;;;;;3.47;3.08;;;14.00;33.50;;;;;;5129252;27;47062;-20
2022/03/01 06:41:22;;;;;;;3.20;2.90;;;14.00;33.40;;;;;;5128681;27;46914;-20
2022/03/01 06:43:48;;;;;;;3.85;3.00;;;14.10;33.30;;;;;;5128946;27;46880;-20
2022/03/01 06:46:15;;;;;;;3.30;3.00;;;14.10;33.30;;;;;;5129228;27;47293;-20
2022/03/01 06:48:42;;;;;;;3.30;2.93;;;14.10;33.30;;;;;;5129307;27;47853;-20
2022/03/01 06:51:08;;;;;;;3.70;2.80;;;14.10;33.20;;;;;;5129131;27;46885;-16
2022/03/01 06:53:35;;;;;;;4.23;2.90;;;14.10;33.20;;;;;;5128907;27;46833;-15
2022/03/01 06:56:04;;;;;;;4.60;2.80;;;14.10;33.10;;;;;;5128888;27;46945;-16
2022/03/01 06:58:30;;;;;;;4.13;2.92;;;14.10;33.10;;;;;;5129109;27;48805;-21
2022/03/01 07:01:00;;;;;;;4.70;3.20;;;14.10;33.20;;;;;;5128567;27;46865;-20
2022/03/01 07:03:27;;;;;;;3.30;2.80;;;14.10;33.20;;;;;;5128740;27;46830;-20
2022/03/01 07:05:53;;;;;;;4.30;2.95;;;14.10;33.20;;;;;;5128993;27;46875;-20
2022/03/01 07:08:20;;;;;;;4.10;2.73;;;14.10;33.20;;;;;;5128583;27;47315;-21
2022/03/01 07:10:47;;;;;;;4.40;3.00;;;14.10;33.20;;;;;;5128113;27;47768;-16
2022/03/01 07:13:17;;;;;;;3.30;2.93;;;14.00;33.10;;;;;;5127879;27;46826;-16
2022/03/01 07:15:45;;;;;;;4.82;3.08;;;14.00;32.80;;;;;;5129395;27;46869;-20
2022/03/01 07:18:12;;;;;;;5.82;3.03;;;14.00;33.10;;;;;;5128707;27;47093;-16
2022/03/01 07:20:38;;;;;;;4.47;2.97;;;14.00;33.20;;;;;;5128720;27;46849;-15
2022/03/01 07:23:05;;;;;;;4.07;3.17;;;14.00;33.30;;;;;;5128682;27;46802;-15
2022/03/01 07:25:32;;;;;;;5.00;3.47;;;14.00;33.30;;;;;;5128467;27;47305;-14
2022/03/01 07:27:59;;;;;;;4.30;2.92;;;14.00;33.30;;;;;;5127455;27;47824;-15
2022/03/01 07:30:27;;;;;;;4.53;3.30;;;13.90;33.20;;;;;;5128343;27;47167;-15
2022/03/01 07:32:55;;;;;;;4.10;3.05;;;13.90;33.30;;;;;;5128432;27;46821;-20
2022/03/01 07:35:22;;;;;;;3.50;3.13;;;13.90;33.40;;;;;;5128073;27;47022;-20
2022/03/01 07:37:48;;;;;;;3.33;2.75;;;13.90;33.50;;;;;;5128017;27;46850;-20
2022/03/01 07:40:15;;;;;;;3.92;3.28;;;13.90;33.50;;;;;;5128109;27;46858;-20
2022/03/01 07:42:42;;;;;;;3.97;3.33;;;13.90;33.50;;;;;;5128299;27;46795;-20
2022/03/01 07:45:10;;;;;;;4.60;3.40;;;13.90;33.50;;;;;;5128524;27;46865;-20
2022/03/01 07:47:38;;;;;;;4.97;3.22;;;13.90;33.60;;;;;;5128129;27;47953;-20
2022/03/01 07:50:05;;;;;;;4.72;3.30;;;13.80;33.50;;;;;;5127423;27;47087;-20
2022/03/01 07:52:32;;;;;;;3.93;3.10;;;13.80;33.50;;;;;;5128354;27;46789;-20
2022/03/01 07:54:59;;;;;;;4.50;3.00;;;13.80;33.50;;;;;;5127939;27;46885;-20
2022/03/01 07:57:26;;;;;;;3.77;3.33;;;13.80;33.50;;;;;;5127965;27;49034;-16
2022/03/01 07:59:52;;;;;;;4.60;3.30;;;13.80;33.50;;;;;;5127436;27;46858;-15
2022/03/01 08:02:19;;;;;;;3.25;2.95;;;13.80;33.50;;;;;;5128980;27;46840;-15
2022/03/01 08:04:47;;;;;;;4.37;3.40;;;13.80;33.60;;;;;;5147536;27;47190;-15
2022/03/01 08:07:14;;;;;;;4.90;3.37;;;13.80;33.60;;;;;;5148605;27;47896;-16
2022/03/01 08:09:40;;;;;;;4.28;3.15;;;13.80;33.60;;;;;;5133070;27;47534;-15
2022/03/01 08:12:08;;;;;;;6.85;3.63;;;13.80;33.70;;;;;;5127560;27;47075;-16
2022/03/01 08:14:35;;;;;;;5.33;3.73;;;13.80;33.70;;;;;;5127938;27;46991;-15
2022/03/01 08:17:02;;;;;;;5.60;3.43;;;13.80;33.80;;;;;;5127259;27;47791;-16
2022/03/01 08:19:29;;;;;;;4.25;3.78;;;13.80;33.90;;;;;;5128016;27;46875;-20
2022/03/01 08:21:57;;;;;;;3.85;3.47;;;13.80;33.90;;;;;;5128117;27;46957;-15
2022/03/01 08:24:24;;;;;;;4.35;3.55;;;13.80;33.90;;;;;;5127760;27;46886;-15
2022/03/01 08:26:50;;;;;;;4.03;3.17;;;13.70;33.80;;;;;;5127295;27;47930;-15
2022/03/01 08:29:17;;;;;;;4.00;3.40;;;13.70;33.90;;;;;;5126946;27;46822;-15
2022/03/01 08:31:44;;;;;;;5.03;3.50;;;13.70;33.90;;;;;;5127662;27;46891;-16
2022/03/01 08:34:10;;;;;;;6.03;3.50;;;13.70;33.90;;;;;;5127359;27;47292;-16
2022/03/01 08:36:37;;;;;;;5.88;3.40;;;13.70;34.00;;;;;;5127481;27;47164;-17
2022/03/01 08:39:05;;;;;;;4.63;3.77;;;13.70;33.90;;;;;;5126444;27;46962;-15
2022/03/01 08:41:32;;;;;;;4.83;3.30;;;13.70;33.90;;;;;;5126803;27;46818;-15
2022/03/01 08:43:59;;;;;;;4.13;3.47;;;13.70;33.90;;;;;;5127148;27;46896;-21
2022/03/01 08:46:25;;;;;;;4.27;3.27;;;13.70;34.00;;;;;;5127418;27;48778;-15
2022/03/01 08:48:53;;;;;;;6.20;3.40;;;13.70;34.00;;;;;;5127059;27;47066;-15
2022/03/01 08:51:21;;;;;;;4.60;3.50;;;13.70;34.00;;;;;;5127188;27;46904;-20
2022/03/01 08:53:48;;;;;;;4.27;3.37;;;13.70;34.00;;;;;;5127023;27;47337;-21
2022/03/01 08:56:16;;;;;;;4.20;3.80;;;13.80;34.20;;;;;;5127012;27;48185;-21
2022/03/01 08:58:43;;;;;;;4.30;3.30;;;13.80;34.10;;;;;;5126858;27;46958;-20
2022/03/01 09:01:10;;;;;;;5.10;3.57;;;13.80;34.10;;;;;;5126827;27;47031;-20
2022/03/01 09:03:36;;;;;;;3.20;2.90;;;13.80;34.20;;;;;;5126941;27;46891;-19
2022/03/01 09:06:05;;;;;;;4.37;3.50;;;13.80;34.20;;;;;;5127022;27;48153;-20
2022/03/01 09:08:32;;;;;;;4.47;3.47;;;13.80;34.20;;;;;;5126416;27;46932;-20
2022/03/01 09:10:58;;;;;;;3.27;2.97;;;13.80;34.30;;;;;;5126721;27;47124;-20
2022/03/01 09:13:27;;;;;;;4.43;3.30;;;13.80;34.30;;;;;;5126889;27;46900;-20
2022/03/01 09:15:53;;;;;;;4.30;3.47;;;13.80;34.20;;;;;;5126512;27;47077;-20
2022/03/01 09:18:21;;;;;;;6.55;3.00;;;13.80;34.30;;;;;;5126800;27;47295;-20
2022/03/01 09:20:48;;;;;;;6.67;3.50;;;13.80;34.30;;;;;;5126431;27;46966;-20
2022/03/01 09:23:14;;;;;;;4.70;3.30;;;13.80;34.30;;;;;;5128231;27;46868;-19
2022/03/01 09:25:42;;;;;;;3.80;3.40;;;13.80;34.30;;;;;;5126684;27;49049;-15
2022/03/01 09:28:09;;;;;;;3.72;2.83;;;13.80;34.10;;;;;;5127251;27;46734;-21
2022/03/01 09:30:37;;;;;;;6.57;4.30;;;13.80;34.30;;;;;;5125572;27;46882;-21
2022/03/01 09:33:04;;;;;;;7.32;3.90;;;13.80;33.00;;;;;;5139169;27;47214;-20
2022/03/01 09:35:30;;;;;;;6.57;3.90;;;13.80;32.60;;;;;;5146199;27;48834;-20
2022/03/01 09:37:57;;;;;;;7.30;4.03;;;13.80;32.40;;;;;;5146596;27;46926;-20
2022/03/01 09:40:25;;;;;;;7.00;4.63;;;13.90;31.80;;;;;;5147259;27;46987;-15
2022/03/01 09:42:52;;;;;;;5.17;3.70;;;13.90;31.10;;;;;;5148251;27;47351;-21
2022/03/01 09:45:19;;;;;;;7.18;4.43;;;14.00;31.30;;;;;;5145725;27;48798;-20
2022/03/01 09:47:47;;;;;;;5.20;4.70;;;14.10;31.20;;;;;;5146457;27;46904;-20
2022/03/01 09:50:15;;;;;;;6.22;4.20;;;14.20;30.90;;;;;;5147007;27;47025;-20
2022/03/01 09:52:42;;;;;;;7.07;4.60;;;14.30;30.60;;;;;;5150409;27;47018;-20
2022/03/01 09:55:09;;;;;;;7.03;4.85;;;14.40;31.10;;;;;;5150348;27;48218;-19
2022/03/01 09:57:36;;;;;;;6.80;5.07;;;14.50;30.10;;;;;;5150980;27;46967;-20
2022/03/01 10:00:03;;;;;;;5.67;4.93;;;14.60;30.80;;;;;;5150570;27;46805;-20
2022/03/01 10:02:34;;;;;;;5.97;4.35;;;14.70;30.00;;;;;;5149911;27;47256;-20
2022/03/01 10:05:02;;;;;;;5.40;4.27;;;14.70;30.00;;;;;;5150339;27;46896;-20
2022/03/01 10:07:30;;;;;;;5.18;4.53;;;14.90;30.20;;;;;;5150785;27;46880;-17
2022/03/01 10:10:04;;;;;;;7.40;4.22;;;14.90;30.20;;;;;;5150094;27;47019;-15
2022/03/01 10:12:30;;;;;;;7.05;4.22;;;15.00;30.30;;;;;;5150774;27;46915;-14
2022/03/01 10:14:59;;;;;;;4.57;4.00;;;15.00;30.30;;;;;;5149946;27;48144;-14
2022/03/01 10:17:33;;;;;;;5.32;4.22;;;15.10;30.50;;;;;;5150589;27;46941;-15
2022/03/01 10:20:09;;;;;;;5.57;3.88;;;15.10;30.50;;;;;;5150319;27;46934;-16
2022/03/01 10:22:38;;;;;;;5.00;4.05;;;15.20;30.60;;;;;;5150482;27;46950;-15
2022/03/01 10:25:06;;;;;;;5.97;3.83;;;15.20;30.60;;;;;;5150347;27;46878;-15
2022/03/01 10:27:33;;;;;;;5.75;4.03;;;15.20;30.70;;;;;;5150338;27;47243;-15
2022/03/01 10:30:00;;;;;;;4.88;3.78;;;15.30;31.30;;;;;;5149946;27;46840;-15
2022/03/01 10:32:27;;;;;;;4.57;3.70;;;15.30;30.80;;;;;;5148746;27;46946;-16
2022/03/01 10:35:01;;;;;;;4.07;3.67;;;15.30;30.90;;;;;;5150124;27;49041;-15
2022/03/01 10:37:30;;;;;;;5.57;3.85;;;15.40;31.00;;;;;;5150057;27;46960;-15
2022/03/01 10:40:17;;;;;;;5.85;4.00;;;15.40;31.10;;;;;;5150155;27;46932;-15
2022/03/01 10:42:44;;;;;;;3.72;3.42;;;15.40;31.10;;;;;;5150523;27;47183;-15
2022/03/01 10:45:11;;;;;;;4.68;3.97;;;15.40;31.20;;;;;;5149551;27;47853;-15
2022/03/01 10:47:38;;;;;;;4.28;3.70;;;15.50;31.30;;;;;;5149681;27;47420;-15
2022/03/01 10:50:06;;;;;;;4.13;3.72;;;15.50;31.30;;;;;;5149405;27;47049;-15
2022/03/01 10:52:34;;;;;;;5.18;4.05;;;15.50;31.30;;;;;;5150107;27;47205;-19
2022/03/01 10:55:01;;;;;;;4.38;3.80;;;15.60;31.30;;;;;;5149380;27;47839;-20
2022/03/01 10:57:28;;;;;;;5.90;3.90;;;15.60;31.50;;;;;;5149795;27;46873;-20
2022/03/01 10:59:54;;;;;;;7.05;4.05;;;15.60;31.40;;;;;;5149523;27;46828;-20
2022/03/01 11:02:21;;;;;;;4.38;3.72;;;15.60;31.40;;;;;;5149238;27;47095;-20
2022/03/01 11:04:49;;;;;;;4.18;3.78;;;15.60;31.50;;;;;;5149237;27;48148;-20
2022/03/01 11:07:15;;;;;;;7.40;4.00;;;15.70;31.60;;;;;;5149792;27;47535;-20
2022/03/01 11:09:44;;;;;;;4.20;3.80;;;15.70;31.60;;;;;;5149826;27;46941;-20
2022/03/01 11:12:12;;;;;;;4.25;3.85;;;15.70;31.70;;;;;;5149632;27;46841;-20
2022/03/01 11:14:44;;;;;;;5.10;3.60;;;15.70;31.70;;;;;;5149087;27;47777;-20
2022/03/01 11:17:15;;;;;;;5.60;3.83;;;15.70;31.60;;;;;;5149640;27;47443;-20
2022/03/01 11:19:58;;;;;;;5.38;4.00;;;15.70;31.60;;;;;;5148986;27;47014;-19
2022/03/01 11:22:26;;;;;;;4.88;3.80;;;15.80;31.80;;;;;;5149406;27;46840;-20
2022/03/01 11:24:54;;;;;;;5.22;3.90;;;15.80;31.70;;;;;;5149672;27;47843;-20
2022/03/01 11:27:22;;;;;;;4.88;3.60;;;15.80;31.60;;;;;;5149463;27;46873;-20
2022/03/01 11:29:49;;;;;;;4.30;3.55;;;15.90;31.60;;;;;;5148664;27;47342;-20
2022/03/01 11:32:16;;;;;;;4.50;3.75;;;16.00;31.50;;;;;;5149541;27;46992;-20
2022/03/01 11:34:43;;;;;;;4.22;3.40;;;16.10;31.40;;;;;;5148948;27;49019;-20
2022/03/01 11:37:17;;;;;;;4.00;3.60;;;16.10;31.30;;;;;;5148765;27;46881;-20
2022/03/01 11:39:45;;;;;;;5.43;3.15;;;16.20;31.20;;;;;;5149437;27;46852;-15
2022/03/01 11:42:18;;;;;;;3.95;3.20;;;16.20;31.00;;;;;;5148169;27;47294;-16
2022/03/01 11:44:49;;;;;;;3.83;3.38;;;16.30;31.00;;;;;;5147371;27;47967;-15
2022/03/01 11:47:24;;;;;;;5.85;3.78;;;16.30;31.10;;;;;;5148350;27;46865;-15
2022/03/01 11:49:51;;;;;;;4.47;3.22;;;16.40;31.10;;;;;;5148649;27;46971;-15
2022/03/01 11:52:19;;;;;;;4.78;3.28;;;16.40;30.90;;;;;;5148830;27;47121;-15
2022/03/01 11:54:46;;;;;;;4.53;3.45;;;16.50;30.90;;;;;;5148605;27;48129;-20
2022/03/01 11:57:14;;;;;;;4.03;3.20;;;16.50;31.00;;;;;;5147689;27;46912;-20
2022/03/01 11:59:41;;;;;;;4.90;3.40;;;16.60;31.00;;;;;;5147559;27;47070;-20
2022/03/01 12:02:08;;;;;;;4.10;3.67;;;16.60;30.90;;;;;;5149124;27;46910;-19
2022/03/01 12:04:44;;;;;;;4.72;3.10;;;16.60;30.80;;;;;;5148554;27;49104;-19
2022/03/01 12:07:10;;;;;;;4.07;3.50;;;16.70;30.80;;;;;;5148882;27;47164;-20
2022/03/01 12:09:39;;;;;;;3.65;3.05;;;16.70;30.80;;;;;;5148112;27;46892;-20
2022/03/01 12:12:07;;;;;;;4.43;3.00;;;16.80;30.90;;;;;;5149029;27;46881;-20
2022/03/01 12:14:35;;;;;;;3.72;3.35;;;16.80;30.80;;;;;;5148143;27;47902;-20
2022/03/01 12:17:03;;;;;;;4.03;3.10;;;16.80;30.90;;;;;;5148484;27;47403;-19
2022/03/01 12:19:31;;;;;;;3.63;2.90;;;16.80;31.00;;;;;;5148537;27;47034;-20
2022/03/01 12:21:58;;;;;;;4.22;3.20;;;16.80;31.00;;;;;;5148500;27;46909;-20
2022/03/01 12:24:26;;;;;;;3.83;2.90;;;16.90;31.00;;;;;;5148054;27;49064;-20
2022/03/01 12:26:54;;;;;;;6.60;3.40;;;16.90;31.00;;;;;;5148357;27;47424;-20
2022/03/01 12:29:22;;;;;;;3.50;3.05;;;16.90;31.00;;;;;;5148013;27;46903;-19
2022/03/01 12:31:57;;;;;;;4.13;3.30;;;16.90;31.00;;;;;;5148610;27;47014;-19
2022/03/01 12:34:24;;;;;;;3.25;2.95;;;16.90;31.20;;;;;;5147862;27;49076;-20
2022/03/01 12:36:54;;;;;;;3.72;3.42;;;16.90;31.20;;;;;;5148141;27;46826;-20
2022/03/01 12:39:21;;;;;;;3.85;3.20;;;17.00;31.10;;;;;;5147918;27;46851;-20
2022/03/01 12:41:47;;;;;;;3.60;3.20;;;17.10;31.00;;;;;;5148467;27;47251;-20
2022/03/01 12:44:15;;;;;;;3.90;2.85;;;17.10;30.90;;;;;;5147992;27;47236;-20
2022/03/01 12:46:42;;;;;;;3.55;3.03;;;17.20;30.90;;;;;;5148241;27;46864;-20
2022/03/01 12:49:11;;;;;;;3.83;3.05;;;17.20;30.90;;;;;;5147787;27;46923;-19